createdAt,value
2022-10-30T00:04:02.116Z,14.98
2022-10-30T00:09:22.551Z,13.40
2022-10-30T00:14:25.324Z,14.28
2022-10-30T00:19:28.037Z,17.14
2022-10-30T00:24:30.995Z,16.00
2022-10-30T00:29:33.714Z,14.19
2022-10-30T00:34:54.190Z,13.10
2022-10-30T00:39:56.925Z,14.19
2022-10-30T00:44:59.681Z,16.99
2022-10-30T00:50:28.728Z,15.47
2022-10-30T00:55:54.094Z,13.97
2022-10-30T01:00:59.617Z,15.03
2022-10-30T01:06:19.973Z,16.59
2022-10-30T01:11:23.016Z,14.62
2022-10-30T01:16:44.786Z,13.75
2022-10-30T01:22:42.598Z,16.53
2022-10-30T01:28:06.046Z,14.86
2022-10-30T01:33:08.627Z,13.21
2022-10-30T01:38:54.925Z,15.23
2022-10-30T01:44:24.462Z,15.96
2022-10-30T01:49:47.458Z,13.70
2022-10-30T01:55:18.947Z,14.49
2022-10-30T02:00:21.702Z,16.54
2022-10-30T02:05:36.756Z,14.34
2022-10-30T02:10:41.621Z,14.50
2022-10-30T02:15:45.637Z,16.77
2022-10-30T02:20:49.285Z,14.61
2022-10-30T02:25:52.029Z,15.01
2022-10-30T02:30:55.176Z,16.57
2022-10-30T02:35:57.927Z,14.17
2022-10-30T02:41:00.634Z,14.15
2022-10-30T02:46:03.563Z,16.70
2022-10-30T02:51:06.450Z,15.19
2022-10-30T02:56:12.680Z,14.79
2022-10-30T03:01:17.998Z,16.73
2022-10-30T03:06:20.925Z,14.81
2022-10-30T03:11:23.685Z,16.41
2022-10-30T03:16:29.546Z,16.23
2022-10-30T03:21:32.331Z,14.39
2022-10-30T03:26:52.688Z,16.69
2022-10-30T03:32:13.355Z,15.60
2022-10-30T03:37:16.193Z,14.28
2022-10-30T03:42:18.943Z,16.66
2022-10-30T03:47:21.668Z,15.31
2022-10-30T03:52:24.411Z,14.07
2022-10-30T03:57:27.231Z,16.59
2022-10-30T04:02:29.960Z,15.26
2022-10-30T04:07:32.710Z,14.73
2022-10-30T04:12:35.631Z,16.50
2022-10-30T04:17:38.375Z,14.45
2022-10-30T04:22:41.118Z,15.84
2022-10-30T04:27:45.152Z,16.20
2022-10-30T04:32:52.188Z,13.87
2022-10-30T04:38:14.948Z,15.76
2022-10-30T04:43:18.190Z,15.88
2022-10-30T04:48:20.917Z,14.00
2022-10-30T04:53:23.679Z,16.28
2022-10-30T04:58:26.451Z,15.40
2022-10-30T05:03:29.234Z,13.98
2022-10-30T05:08:32.821Z,16.06
2022-10-30T05:13:35.626Z,15.88
2022-10-30T05:18:38.373Z,13.69
2022-10-30T05:23:41.265Z,15.73
2022-10-30T05:28:44.056Z,15.82
2022-10-30T05:33:46.813Z,13.36
2022-10-30T05:38:49.672Z,13.98
2022-10-30T05:43:52.443Z,16.51
2022-10-30T05:48:55.154Z,15.36
2022-10-30T05:54:15.362Z,15.02
2022-10-30T05:59:18.763Z,16.64
2022-10-30T06:04:21.536Z,14.39
2022-10-30T06:09:24.293Z,14.50
2022-10-30T06:14:27.056Z,16.86
2022-10-30T06:19:29.827Z,15.14
2022-10-30T06:24:32.579Z,14.92
2022-10-30T06:29:35.416Z,17.24
2022-10-30T06:34:38.241Z,15.66
2022-10-30T06:39:41.015Z,15.21
2022-10-30T06:44:43.766Z,17.07
2022-10-30T06:50:06.570Z,14.84
2022-10-30T06:55:10.609Z,15.13
2022-10-30T07:00:31.038Z,17.27
2022-10-30T07:05:33.771Z,15.75
2022-10-30T07:10:36.533Z,16.67
2022-10-30T07:15:59.087Z,16.09
2022-10-30T07:21:01.861Z,16.20
2022-10-30T07:26:04.795Z,17.14
2022-10-30T07:31:41.374Z,15.12
2022-10-30T07:36:45.422Z,16.44
2022-10-30T07:41:50.717Z,17.66
2022-10-30T07:46:53.870Z,15.75
2022-10-30T07:51:56.678Z,16.91
2022-10-30T07:56:59.489Z,17.56
2022-10-30T08:02:02.619Z,16.15
2022-10-30T08:07:05.478Z,18.08
2022-10-30T08:12:08.315Z,16.78
2022-10-30T08:17:29.012Z,16.99
2022-10-30T08:22:32.020Z,16.66
2022-10-30T08:28:01.558Z,16.65
2022-10-30T08:33:13.660Z,17.72
2022-10-30T08:38:21.546Z,15.78
2022-10-30T08:43:26.743Z,16.50
2022-10-30T08:48:47.205Z,18.45
2022-10-30T08:53:50.132Z,16.61
2022-10-30T08:58:53.208Z,15.96
2022-10-30T09:03:55.865Z,18.00
2022-10-30T09:08:58.912Z,16.83
2022-10-30T09:14:01.667Z,17.73
2022-10-30T09:19:04.510Z,17.71
2022-10-30T09:24:07.628Z,17.54
2022-10-30T09:29:10.403Z,17.63
2022-10-30T09:34:13.165Z,17.58
2022-10-30T09:39:16.198Z,18.47
2022-10-30T09:44:25.126Z,17.14
2022-10-30T09:49:40.057Z,18.54
2022-10-30T09:54:55.884Z,17.19
2022-10-30T10:00:04.172Z,18.73
2022-10-30T10:05:22.408Z,17.38
2022-10-30T10:10:39.754Z,18.57
2022-10-30T10:16:10.338Z,17.99
2022-10-30T10:21:21.400Z,17.77
2022-10-30T10:26:50.420Z,17.94
2022-10-30T10:31:58.951Z,16.96
2022-10-30T10:37:17.067Z,18.37
2022-10-30T10:42:34.687Z,16.99
2022-10-30T10:48:17.192Z,18.35
2022-10-30T10:53:22.626Z,17.04
2022-10-30T10:58:56.984Z,18.45
2022-10-30T11:04:27.077Z,17.96
2022-10-30T11:09:29.848Z,17.07
2022-10-30T11:14:32.567Z,19.42
2022-10-30T11:19:35.386Z,18.56
2022-10-30T11:24:38.328Z,16.99
2022-10-30T11:29:56.620Z,17.92
2022-10-30T11:35:04.108Z,18.91
2022-10-30T11:40:10.195Z,17.40
2022-10-30T11:45:38.430Z,18.58
2022-10-30T11:50:48.329Z,18.93
2022-10-30T11:55:51.732Z,17.56
2022-10-30T12:01:02.774Z,16.92
2022-10-30T12:06:23.603Z,18.74
2022-10-30T12:11:32.628Z,17.66
2022-10-30T12:16:35.444Z,16.69
2022-10-30T12:21:40.622Z,17.75
2022-10-30T12:26:48.469Z,18.49
2022-10-30T12:32:02.465Z,17.51
2022-10-30T12:37:14.921Z,17.03
2022-10-30T12:42:19.049Z,16.80
2022-10-30T12:47:52.902Z,16.55
2022-10-30T12:53:20.432Z,16.45
2022-10-30T12:58:58.545Z,16.36
2022-10-30T13:04:20.558Z,18.18
2022-10-30T13:10:11.530Z,18.69
2022-10-30T13:15:47.643Z,17.34
2022-10-30T13:21:11.001Z,16.68
2022-10-30T13:26:59.341Z,16.23
2022-10-30T13:32:32.437Z,18.15
2022-10-30T13:38:16.811Z,19.12
2022-10-30T13:43:28.916Z,17.42
2022-10-30T13:49:08.063Z,16.51
2022-10-30T13:54:39.473Z,15.94
2022-10-30T13:59:48.412Z,15.88
2022-10-30T14:05:01.745Z,19.03
2022-10-30T14:10:32.537Z,19.18
2022-10-30T14:16:00.669Z,17.05
2022-10-30T14:21:39.153Z,16.08
2022-10-30T14:26:53.089Z,15.33
2022-10-30T14:31:56.403Z,16.62
2022-10-30T14:37:21.562Z,18.42
2022-10-30T14:42:26.276Z,16.61
2022-10-30T14:47:34.955Z,15.58
2022-10-30T14:53:06.458Z,14.97
2022-10-30T14:58:22.492Z,16.76
2022-10-30T15:03:35.766Z,19.08
2022-10-30T15:08:41.631Z,17.19
2022-10-30T15:13:52.653Z,15.85
2022-10-30T15:19:12.495Z,16.98
2022-10-30T15:24:21.053Z,18.46
2022-10-30T15:29:36.868Z,16.48
2022-10-30T15:34:39.694Z,15.17
2022-10-30T15:39:42.387Z,16.28
2022-10-30T15:44:47.127Z,18.73
2022-10-30T15:49:54.532Z,17.04
2022-10-30T15:55:19.839Z,15.68
2022-10-30T16:00:29.904Z,16.60
2022-10-30T16:05:34.003Z,18.31
2022-10-30T16:10:37.045Z,16.40
2022-10-30T16:15:40.069Z,15.14
2022-10-30T16:20:47.171Z,16.02
2022-10-30T16:25:58.382Z,18.53
2022-10-30T16:31:06.699Z,16.81
2022-10-30T16:36:16.876Z,15.44
2022-10-30T16:41:25.749Z,16.37
2022-10-30T16:46:51.905Z,18.58
2022-10-30T16:52:02.386Z,16.64
2022-10-30T16:57:16.513Z,15.40
2022-10-30T17:02:27.029Z,17.89
2022-10-30T17:07:29.960Z,18.05
2022-10-30T17:12:32.688Z,16.04
2022-10-30T17:18:11.959Z,16.68
2022-10-30T17:23:18.301Z,18.12
2022-10-30T17:28:35.466Z,16.19
2022-10-30T17:33:38.339Z,15.43
2022-10-30T17:38:41.229Z,18.21
2022-10-30T17:43:52.988Z,17.39
2022-10-30T17:48:58.175Z,15.58
2022-10-30T17:54:00.981Z,16.33
2022-10-30T17:59:03.799Z,17.98
2022-10-30T18:04:24.153Z,15.94
2022-10-30T18:09:45.258Z,14.81
2022-10-30T18:14:47.907Z,17.21
2022-10-30T18:19:51.395Z,17.58
2022-10-30T18:24:54.139Z,15.58
2022-10-30T18:30:15.729Z,14.68
2022-10-30T18:35:26.396Z,17.40
2022-10-30T18:40:47.976Z,16.79
2022-10-30T18:45:50.800Z,14.95
2022-10-30T18:50:53.574Z,15.64
2022-10-30T18:55:56.325Z,17.18
2022-10-30T19:01:11.665Z,15.11
2022-10-30T19:06:18.630Z,14.26
2022-10-30T19:11:24.685Z,17.01
2022-10-30T19:16:28.909Z,15.84
2022-10-30T19:21:33.642Z,13.94
2022-10-30T19:26:36.456Z,15.18
2022-10-30T19:31:39.242Z,16.52
2022-10-30T19:36:42.792Z,14.34
2022-10-30T19:42:03.065Z,14.96
2022-10-30T19:47:23.398Z,16.29
2022-10-30T19:52:29.253Z,14.07
2022-10-30T19:57:32.829Z,14.39
2022-10-30T20:02:36.578Z,16.34
2022-10-30T20:07:39.991Z,14.28
2022-10-30T20:12:42.704Z,13.07
2022-10-30T20:17:47.064Z,15.70
2022-10-30T20:22:50.229Z,15.17
2022-10-30T20:28:02.280Z,13.12
2022-10-30T20:33:27.390Z,14.75
2022-10-30T20:38:33.092Z,15.73
2022-10-30T20:43:38.655Z,13.46
2022-10-30T20:48:41.421Z,13.93
2022-10-30T20:53:44.179Z,15.49
2022-10-30T20:58:46.926Z,13.24
2022-10-30T21:03:50.945Z,13.75
2022-10-30T21:08:53.656Z,15.61
2022-10-30T21:13:57.765Z,13.41
2022-10-30T21:19:18.015Z,13.77
2022-10-30T21:24:20.783Z,15.29
2022-10-30T21:29:23.553Z,13.17
2022-10-30T21:34:26.409Z,13.59
2022-10-30T21:39:29.194Z,15.13
2022-10-30T21:44:49.430Z,12.81
2022-10-30T21:49:52.280Z,11.34
2022-10-30T21:54:55.060Z,12.73
2022-10-30T22:00:00.178Z,14.85
2022-10-30T22:05:06.483Z,12.70
2022-10-30T22:10:09.255Z,12.96
2022-10-30T22:15:12.032Z,15.03
2022-10-30T22:20:32.435Z,12.72
2022-10-30T22:25:35.163Z,11.14
2022-10-30T22:30:37.917Z,13.25
2022-10-30T22:35:40.654Z,14.68
2022-10-30T22:40:43.413Z,12.44
2022-10-30T22:46:04.428Z,12.91
2022-10-30T22:51:13.338Z,14.40
2022-10-30T22:56:20.837Z,12.13
2022-10-30T23:01:26.794Z,10.60
2022-10-30T23:06:31.169Z,11.71
2022-10-30T23:11:34.016Z,14.36
2022-10-30T23:16:36.757Z,12.28
2022-10-30T23:21:39.620Z,10.41
2022-10-30T23:26:42.405Z,11.22
2022-10-30T23:31:45.669Z,14.11
2022-10-30T23:36:48.304Z,12.45
2022-10-30T23:41:51.045Z,10.64
2022-10-30T23:46:53.795Z,12.75
2022-10-30T23:51:56.551Z,13.75
2022-10-30T23:56:59.303Z,11.41
